sensor_id;sensor_type;location;lat;lon;timestamp;pressure;altitude;pressure_sealevel;temperature
63689;BMP280;54895;40.928;14.480;2022-11-14T00:01:35;101782.31;;;17.14
63689;BMP280;54895;40.928;14.480;2022-11-14T00:04:19;101780.69;;;17.54
63689;BMP280;54895;40.928;14.480;2022-11-14T00:07:04;101777.16;;;17.89
63689;BMP280;54895;40.928;14.480;2022-11-14T00:09:49;101766.72;;;17.70
63689;BMP280;54895;40.928;14.480;2022-11-14T00:12:34;101766.91;;;17.72
63689;BMP280;54895;40.928;14.480;2022-11-14T00:15:18;101763.22;;;17.32
63689;BMP280;54895;40.928;14.480;2022-11-14T00:18:03;101766.88;;;17.14
63689;BMP280;54895;40.928;14.480;2022-11-14T00:20:48;101769.09;;;17.89
63689;BMP280;54895;40.928;14.480;2022-11-14T00:23:33;101762.97;;;17.23
63689;BMP280;54895;40.928;14.480;2022-11-14T00:26:17;101757.78;;;17.25
63689;BMP280;54895;40.928;14.480;2022-11-14T00:29:02;101759.94;;;18.07
63689;BMP280;54895;40.928;14.480;2022-11-14T00:31:47;101761.13;;;17.68
63689;BMP280;54895;40.928;14.480;2022-11-14T00:34:32;101744.41;;;16.41
63689;BMP280;54895;40.928;14.480;2022-11-14T00:37:16;101734.03;;;16.45
63689;BMP280;54895;40.928;14.480;2022-11-14T00:40:01;101724.25;;;16.27
63689;BMP280;54895;40.928;14.480;2022-11-14T00:46:48;101740.00;;;16.79
63689;BMP280;54895;40.928;14.480;2022-11-14T00:49:33;101732.50;;;16.85
63689;BMP280;54895;40.928;14.480;2022-11-14T00:52:19;101736.69;;;17.51
63689;BMP280;54895;40.928;14.480;2022-11-14T00:55:04;101728.91;;;17.18
63689;BMP280;54895;40.928;14.480;2022-11-14T00:57:49;101738.19;;;16.74
63689;BMP280;54895;40.928;14.480;2022-11-14T01:00:34;101739.66;;;17.18
63689;BMP280;54895;40.928;14.480;2022-11-14T01:03:19;101731.41;;;16.80
63689;BMP280;54895;40.928;14.480;2022-11-14T01:06:04;101724.66;;;16.87
63689;BMP280;54895;40.928;14.480;2022-11-14T01:08:50;101728.19;;;16.82
63689;BMP280;54895;40.928;14.480;2022-11-14T01:11:35;101723.94;;;16.94
63689;BMP280;54895;40.928;14.480;2022-11-14T01:14:20;101723.59;;;16.97
63689;BMP280;54895;40.928;14.480;2022-11-14T01:17:05;101710.06;;;17.18
63689;BMP280;54895;40.928;14.480;2022-11-14T01:19:50;101714.06;;;17.32
63689;BMP280;54895;40.928;14.480;2022-11-14T01:22:34;101711.84;;;17.08
63689;BMP280;54895;40.928;14.480;2022-11-14T01:25:19;101718.41;;;16.99
63689;BMP280;54895;40.928;14.480;2022-11-14T01:28:11;101716.06;;;16.96
63689;BMP280;54895;40.928;14.480;2022-11-14T01:30:56;101714.25;;;16.91
63689;BMP280;54895;40.928;14.480;2022-11-14T01:33:51;101714.63;;;16.95
63689;BMP280;54895;40.928;14.480;2022-11-14T01:36:36;101702.69;;;17.11
63689;BMP280;54895;40.928;14.480;2022-11-14T01:39:21;101708.44;;;17.15
63689;BMP280;54895;40.928;14.480;2022-11-14T01:42:06;101705.25;;;16.81
63689;BMP280;54895;40.928;14.480;2022-11-14T01:48:25;101699.56;;;16.92
63689;BMP280;54895;40.928;14.480;2022-11-14T01:51:23;101699.59;;;16.99
63689;BMP280;54895;40.928;14.480;2022-11-14T01:54:11;101698.72;;;16.69
63689;BMP280;54895;40.928;14.480;2022-11-14T01:56:58;101686.50;;;16.96
63689;BMP280;54895;40.928;14.480;2022-11-14T01:59:43;101700.84;;;17.64
63689;BMP280;54895;40.928;14.480;2022-11-14T02:02:30;101703.97;;;17.17
63689;BMP280;54895;40.928;14.480;2022-11-14T02:05:14;101691.69;;;17.52
63689;BMP280;54895;40.928;14.480;2022-11-14T02:08:01;101689.56;;;17.80
63689;BMP280;54895;40.928;14.480;2022-11-14T02:10:45;101699.03;;;17.59
63689;BMP280;54895;40.928;14.480;2022-11-14T02:13:30;101691.50;;;17.57
63689;BMP280;54895;40.928;14.480;2022-11-14T02:16:14;101676.28;;;17.90
63689;BMP280;54895;40.928;14.480;2022-11-14T02:18:59;101676.81;;;17.88
63689;BMP280;54895;40.928;14.480;2022-11-14T02:21:44;101669.63;;;17.98
63689;BMP280;54895;40.928;14.480;2022-11-14T02:24:28;101668.53;;;18.09
63689;BMP280;54895;40.928;14.480;2022-11-14T02:27:13;101673.06;;;17.84
63689;BMP280;54895;40.928;14.480;2022-11-14T02:30:06;101677.53;;;17.74
63689;BMP280;54895;40.928;14.480;2022-11-14T02:32:51;101669.28;;;17.87
63689;BMP280;54895;40.928;14.480;2022-11-14T02:35:36;101667.50;;;17.89
63689;BMP280;54895;40.928;14.480;2022-11-14T02:38:20;101685.75;;;17.46
63689;BMP280;54895;40.928;14.480;2022-11-14T02:41:05;101689.94;;;17.04
63689;BMP280;54895;40.928;14.480;2022-11-14T02:47:01;101684.69;;;17.64
63689;BMP280;54895;40.928;14.480;2022-11-14T02:49:46;101683.19;;;17.18
63689;BMP280;54895;40.928;14.480;2022-11-14T02:52:31;101680.69;;;17.35
63689;BMP280;54895;40.928;14.480;2022-11-14T02:55:19;101672.13;;;17.59
63689;BMP280;54895;40.928;14.480;2022-11-14T03:01:32;101670.63;;;17.20
63689;BMP280;54895;40.928;14.480;2022-11-14T03:04:17;101674.91;;;17.23
63689;BMP280;54895;40.928;14.480;2022-11-14T03:07:03;101660.97;;;17.32
63689;BMP280;54895;40.928;14.480;2022-11-14T03:09:48;101671.91;;;16.84
63689;BMP280;54895;40.928;14.480;2022-11-14T03:12:33;101667.47;;;16.86
63689;BMP280;54895;40.928;14.480;2022-11-14T03:15:18;101669.69;;;16.67
63689;BMP280;54895;40.928;14.480;2022-11-14T03:18:02;101663.34;;;16.93
63689;BMP280;54895;40.928;14.480;2022-11-14T03:20:47;101662.25;;;16.81
63689;BMP280;54895;40.928;14.480;2022-11-14T03:23:32;101654.03;;;16.94
63689;BMP280;54895;40.928;14.480;2022-11-14T03:26:17;101651.75;;;16.98
63689;BMP280;54895;40.928;14.480;2022-11-14T03:29:02;101657.69;;;17.19
63689;BMP280;54895;40.928;14.480;2022-11-14T03:31:47;101651.81;;;17.43
63689;BMP280;54895;40.928;14.480;2022-11-14T03:34:31;101646.22;;;17.18
63689;BMP280;54895;40.928;14.480;2022-11-14T03:37:16;101643.03;;;17.35
63689;BMP280;54895;40.928;14.480;2022-11-14T03:40:01;101647.16;;;17.58
63689;BMP280;54895;40.928;14.480;2022-11-14T03:42:46;101650.25;;;17.55
63689;BMP280;54895;40.928;14.480;2022-11-14T03:45:30;101642.13;;;17.47
63689;BMP280;54895;40.928;14.480;2022-11-14T03:48:15;101642.00;;;17.75
63689;BMP280;54895;40.928;14.480;2022-11-14T03:51:00;101642.34;;;17.49
63689;BMP280;54895;40.928;14.480;2022-11-14T03:53:45;101640.19;;;17.78
63689;BMP280;54895;40.928;14.480;2022-11-14T03:56:29;101637.31;;;17.91
63689;BMP280;54895;40.928;14.480;2022-11-14T03:59:14;101643.97;;;17.75
63689;BMP280;54895;40.928;14.480;2022-11-14T04:01:58;101640.53;;;17.82
63689;BMP280;54895;40.928;14.480;2022-11-14T04:04:43;101638.78;;;17.47
63689;BMP280;54895;40.928;14.480;2022-11-14T04:07:28;101644.16;;;17.77
63689;BMP280;54895;40.928;14.480;2022-11-14T04:10:13;101643.59;;;17.41
63689;BMP280;54895;40.928;14.480;2022-11-14T04:12:57;101646.25;;;17.26
63689;BMP280;54895;40.928;14.480;2022-11-14T04:15:42;101655.50;;;17.10
63689;BMP280;54895;40.928;14.480;2022-11-14T04:18:26;101654.91;;;17.47
63689;BMP280;54895;40.928;14.480;2022-11-14T04:21:11;101650.78;;;17.76
63689;BMP280;54895;40.928;14.480;2022-11-14T04:23:56;101649.16;;;17.88
63689;BMP280;54895;40.928;14.480;2022-11-14T04:26:41;101650.25;;;17.85
63689;BMP280;54895;40.928;14.480;2022-11-14T04:29:25;101649.88;;;17.88
63689;BMP280;54895;40.928;14.480;2022-11-14T04:32:10;101646.78;;;18.22
63689;BMP280;54895;40.928;14.480;2022-11-14T04:34:54;101642.81;;;18.23
63689;BMP280;54895;40.928;14.480;2022-11-14T04:37:39;101647.63;;;18.32
63689;BMP280;54895;40.928;14.480;2022-11-14T04:40:23;101646.81;;;17.92
63689;BMP280;54895;40.928;14.480;2022-11-14T04:46:51;101639.25;;;17.23
63689;BMP280;54895;40.928;14.480;2022-11-14T04:49:35;101636.59;;;17.68
63689;BMP280;54895;40.928;14.480;2022-11-14T04:52:20;101645.56;;;18.08
63689;BMP280;54895;40.928;14.480;2022-11-14T04:55:04;101630.13;;;17.86
63689;BMP280;54895;40.928;14.480;2022-11-14T04:57:56;101624.41;;;17.67
63689;BMP280;54895;40.928;14.480;2022-11-14T05:00:41;101635.00;;;17.72
63689;BMP280;54895;40.928;14.480;2022-11-14T05:03:25;101634.78;;;17.48
63689;BMP280;54895;40.928;14.480;2022-11-14T05:06:10;101626.84;;;17.20
63689;BMP280;54895;40.928;14.480;2022-11-14T05:08:54;101601.72;;;17.10
63689;BMP280;54895;40.928;14.480;2022-11-14T05:11:39;101586.84;;;17.09
63689;BMP280;54895;40.928;14.480;2022-11-14T05:14:24;101611.44;;;17.13
63689;BMP280;54895;40.928;14.480;2022-11-14T05:17:08;101620.44;;;17.90
63689;BMP280;54895;40.928;14.480;2022-11-14T05:19:53;101606.81;;;17.66
63689;BMP280;54895;40.928;14.480;2022-11-14T05:22:37;101595.16;;;17.41
63689;BMP280;54895;40.928;14.480;2022-11-14T05:25:22;101579.56;;;17.32
63689;BMP280;54895;40.928;14.480;2022-11-14T05:28:07;101596.78;;;17.44
63689;BMP280;54895;40.928;14.480;2022-11-14T05:30:51;101606.09;;;17.28
63689;BMP280;54895;40.928;14.480;2022-11-14T05:33:36;101603.41;;;17.28
63689;BMP280;54895;40.928;14.480;2022-11-14T05:36:20;101604.28;;;17.23
63689;BMP280;54895;40.928;14.480;2022-11-14T05:39:05;101593.00;;;17.32
63689;BMP280;54895;40.928;14.480;2022-11-14T05:41:49;101591.69;;;17.03
63689;BMP280;54895;40.928;14.480;2022-11-14T05:47:47;101625.66;;;17.51
63689;BMP280;54895;40.928;14.480;2022-11-14T05:50:32;101607.53;;;17.44
63689;BMP280;54895;40.928;14.480;2022-11-14T05:53:17;101608.97;;;17.45
63689;BMP280;54895;40.928;14.480;2022-11-14T05:56:03;101612.53;;;17.40
63689;BMP280;54895;40.928;14.480;2022-11-14T05:58:47;101620.63;;;17.47
63689;BMP280;54895;40.928;14.480;2022-11-14T06:01:32;101630.88;;;17.64
63689;BMP280;54895;40.928;14.480;2022-11-14T06:04:17;101627.63;;;17.58
63689;BMP280;54895;40.928;14.480;2022-11-14T06:07:01;101628.47;;;18.13
63689;BMP280;54895;40.928;14.480;2022-11-14T06:09:46;101633.34;;;17.92
63689;BMP280;54895;40.928;14.480;2022-11-14T06:12:31;101622.06;;;17.63
63689;BMP280;54895;40.928;14.480;2022-11-14T06:15:16;101631.97;;;17.61
63689;BMP280;54895;40.928;14.480;2022-11-14T06:18:01;101633.38;;;17.69
63689;BMP280;54895;40.928;14.480;2022-11-14T06:20:46;101633.56;;;17.64
63689;BMP280;54895;40.928;14.480;2022-11-14T06:23:31;101644.16;;;17.99
63689;BMP280;54895;40.928;14.480;2022-11-14T06:26:26;101630.88;;;17.56
63689;BMP280;54895;40.928;14.480;2022-11-14T06:29:13;101622.41;;;17.60
63689;BMP280;54895;40.928;14.480;2022-11-14T06:31:58;101615.44;;;17.64
63689;BMP280;54895;40.928;14.480;2022-11-14T06:34:42;101633.38;;;17.77
63689;BMP280;54895;40.928;14.480;2022-11-14T06:37:27;101623.69;;;17.89
63689;BMP280;54895;40.928;14.480;2022-11-14T06:40:11;101630.13;;;18.01
63689;BMP280;54895;40.928;14.480;2022-11-14T06:46:51;101626.88;;;18.17
63689;BMP280;54895;40.928;14.480;2022-11-14T06:49:35;101617.72;;;18.05
63689;BMP280;54895;40.928;14.480;2022-11-14T06:52:20;101607.13;;;18.00
63689;BMP280;54895;40.928;14.480;2022-11-14T06:55:05;101611.75;;;18.29
63689;BMP280;54895;40.928;14.480;2022-11-14T06:57:53;101604.53;;;18.32
63689;BMP280;54895;40.928;14.480;2022-11-14T07:00:38;101594.91;;;18.14
63689;BMP280;54895;40.928;14.480;2022-11-14T07:03:22;101575.34;;;18.06
63689;BMP280;54895;40.928;14.480;2022-11-14T07:06:08;101570.47;;;18.04
63689;BMP280;54895;40.928;14.480;2022-11-14T07:08:54;101569.34;;;18.30
63689;BMP280;54895;40.928;14.480;2022-11-14T07:11:39;101564.97;;;18.42
63689;BMP280;54895;40.928;14.480;2022-11-14T07:14:25;101578.91;;;18.63
63689;BMP280;54895;40.928;14.480;2022-11-14T07:17:12;101604.31;;;18.84
63689;BMP280;54895;40.928;14.480;2022-11-14T07:19:57;101613.09;;;19.16
63689;BMP280;54895;40.928;14.480;2022-11-14T07:22:43;101625.69;;;19.14
63689;BMP280;54895;40.928;14.480;2022-11-14T07:25:28;101622.41;;;18.98
63689;BMP280;54895;40.928;14.480;2022-11-14T07:28:13;101628.06;;;19.10
63689;BMP280;54895;40.928;14.480;2022-11-14T07:30:57;101632.91;;;19.11
63689;BMP280;54895;40.928;14.480;2022-11-14T07:33:42;101639.28;;;19.23
63689;BMP280;54895;40.928;14.480;2022-11-14T07:36:27;101643.94;;;19.30
63689;BMP280;54895;40.928;14.480;2022-11-14T07:39:12;101648.31;;;19.50
63689;BMP280;54895;40.928;14.480;2022-11-14T07:41:56;101649.28;;;19.79
63689;BMP280;54895;40.928;14.480;2022-11-14T07:47:46;101652.94;;;20.42
63689;BMP280;54895;40.928;14.480;2022-11-14T07:50:31;101656.63;;;20.37
63689;BMP280;54895;40.928;14.480;2022-11-14T07:53:17;101655.13;;;20.53
63689;BMP280;54895;40.928;14.480;2022-11-14T07:56:03;101659.97;;;20.11
63689;BMP280;54895;40.928;14.480;2022-11-14T07:58:49;101651.53;;;20.24
63689;BMP280;54895;40.928;14.480;2022-11-14T08:01:35;101656.41;;;20.26
63689;BMP280;54895;40.928;14.480;2022-11-14T08:04:20;101650.66;;;20.22
63689;BMP280;54895;40.928;14.480;2022-11-14T08:07:05;101642.13;;;20.42
63689;BMP280;54895;40.928;14.480;2022-11-14T08:09:51;101643.72;;;20.28
63689;BMP280;54895;40.928;14.480;2022-11-14T08:12:36;101635.47;;;20.26
63689;BMP280;54895;40.928;14.480;2022-11-14T08:15:22;101643.59;;;20.26
63689;BMP280;54895;40.928;14.480;2022-11-14T08:18:08;101633.47;;;20.70
63689;BMP280;54895;40.928;14.480;2022-11-14T08:20:53;101636.00;;;20.94
63689;BMP280;54895;40.928;14.480;2022-11-14T08:23:41;101630.09;;;20.79
63689;BMP280;54895;40.928;14.480;2022-11-14T08:26:26;101627.00;;;20.82
63689;BMP280;54895;40.928;14.480;2022-11-14T08:29:11;101626.28;;;20.82
63689;BMP280;54895;40.928;14.480;2022-11-14T08:31:57;101640.88;;;21.05
63689;BMP280;54895;40.928;14.480;2022-11-14T08:34:42;101649.38;;;21.28
63689;BMP280;54895;40.928;14.480;2022-11-14T08:37:27;101658.50;;;21.33
63689;BMP280;54895;40.928;14.480;2022-11-14T08:40:12;101667.47;;;21.35
63689;BMP280;54895;40.928;14.480;2022-11-14T08:42:58;101675.94;;;21.49
63689;BMP280;54895;40.928;14.480;2022-11-14T08:46:11;101682.66;;;21.57
63689;BMP280;54895;40.928;14.480;2022-11-14T08:48:56;101683.13;;;21.73
63689;BMP280;54895;40.928;14.480;2022-11-14T08:51:40;101678.00;;;21.77
63689;BMP280;54895;40.928;14.480;2022-11-14T08:54:25;101683.72;;;21.81
63689;BMP280;54895;40.928;14.480;2022-11-14T08:57:10;101695.38;;;21.28
63689;BMP280;54895;40.928;14.480;2022-11-14T09:13:04;101701.59;;;21.12
63689;BMP280;54895;40.928;14.480;2022-11-14T09:15:49;101696.22;;;21.21
63689;BMP280;54895;40.928;14.480;2022-11-14T09:18:34;101698.69;;;21.27
63689;BMP280;54895;40.928;14.480;2022-11-14T09:21:19;101693.78;;;21.16
63689;BMP280;54895;40.928;14.480;2022-11-14T09:24:04;101705.44;;;21.09
63689;BMP280;54895;40.928;14.480;2022-11-14T09:26:50;101699.88;;;21.43
63689;BMP280;54895;40.928;14.480;2022-11-14T09:29:36;101708.38;;;21.30
63689;BMP280;54895;40.928;14.480;2022-11-14T09:32:21;101703.03;;;21.13
63689;BMP280;54895;40.928;14.480;2022-11-14T09:35:06;101704.59;;;21.16
63689;BMP280;54895;40.928;14.480;2022-11-14T09:37:58;101695.25;;;21.00
63689;BMP280;54895;40.928;14.480;2022-11-14T09:44:09;101709.00;;;21.38
63689;BMP280;54895;40.928;14.480;2022-11-14T09:47:09;101701.44;;;21.10
63689;BMP280;54895;40.928;14.480;2022-11-14T09:50:12;101682.84;;;20.97
63689;BMP280;54895;40.928;14.480;2022-11-14T09:56:10;101701.94;;;21.25
63689;BMP280;54895;40.928;14.480;2022-11-14T09:58:56;101695.44;;;21.02
63689;BMP280;54895;40.928;14.480;2022-11-14T10:02:00;101691.06;;;21.06
63689;BMP280;54895;40.928;14.480;2022-11-14T10:05:17;101701.53;;;21.29
63689;BMP280;54895;40.928;14.480;2022-11-14T10:08:30;101700.94;;;21.21
63689;BMP280;54895;40.928;14.480;2022-11-14T10:20:30;101703.06;;;20.96
63689;BMP280;54895;40.928;14.480;2022-11-14T10:23:30;101686.16;;;20.95
63689;BMP280;54895;40.928;14.480;2022-11-14T10:26:25;101693.47;;;21.02
63689;BMP280;54895;40.928;14.480;2022-11-14T10:29:38;101693.78;;;21.16
63689;BMP280;54895;40.928;14.480;2022-11-14T10:35:42;101689.00;;;20.97
63689;BMP280;54895;40.928;14.480;2022-11-14T10:38:42;101699.97;;;21.35
63689;BMP280;54895;40.928;14.480;2022-11-14T10:41:28;101687.25;;;21.19
63689;BMP280;54895;40.928;14.480;2022-11-14T10:44:19;101688.66;;;21.20
63689;BMP280;54895;40.928;14.480;2022-11-14T10:47:10;101680.63;;;21.03
63689;BMP280;54895;40.928;14.480;2022-11-14T10:49:59;101681.66;;;21.17
63689;BMP280;54895;40.928;14.480;2022-11-14T10:52:51;101677.63;;;20.99
63689;BMP280;54895;40.928;14.480;2022-11-14T10:55:38;101666.31;;;21.19
63689;BMP280;54895;40.928;14.480;2022-11-14T10:58:23;101668.31;;;21.28
63689;BMP280;54895;40.928;14.480;2022-11-14T11:04:32;101666.06;;;21.34
63689;BMP280;54895;40.928;14.480;2022-11-14T11:07:21;101660.44;;;21.68
63689;BMP280;54895;40.928;14.480;2022-11-14T11:10:25;101660.47;;;21.97
63689;BMP280;54895;40.928;14.480;2022-11-14T11:13:34;101665.72;;;22.14
63689;BMP280;54895;40.928;14.480;2022-11-14T11:16:23;101647.75;;;22.27
63689;BMP280;54895;40.928;14.480;2022-11-14T11:19:23;101662.69;;;22.47
63689;BMP280;54895;40.928;14.480;2022-11-14T11:22:35;101656.53;;;22.56
63689;BMP280;54895;40.928;14.480;2022-11-14T11:25:22;101659.88;;;22.85
63689;BMP280;54895;40.928;14.480;2022-11-14T11:30:57;101653.34;;;22.69
63689;BMP280;54895;40.928;14.480;2022-11-14T11:33:42;101650.31;;;22.84
63689;BMP280;54895;40.928;14.480;2022-11-14T11:36:27;101639.47;;;22.75
63689;BMP280;54895;40.928;14.480;2022-11-14T11:39:23;101658.00;;;23.18
63689;BMP280;54895;40.928;14.480;2022-11-14T11:42:15;101657.34;;;23.29
63689;BMP280;54895;40.928;14.480;2022-11-14T11:45:05;101658.66;;;23.49
63689;BMP280;54895;40.928;14.480;2022-11-14T11:48:17;101662.25;;;23.84
63689;BMP280;54895;40.928;14.480;2022-11-14T11:51:03;101661.22;;;23.89
63689;BMP280;54895;40.928;14.480;2022-11-14T11:54:13;101664.22;;;23.72
63689;BMP280;54895;40.928;14.480;2022-11-14T11:57:01;101662.28;;;23.42
63689;BMP280;54895;40.928;14.480;2022-11-14T11:59:51;101650.59;;;23.30
63689;BMP280;54895;40.928;14.480;2022-11-14T12:02:40;101656.97;;;23.44
63689;BMP280;54895;40.928;14.480;2022-11-14T12:11:21;101647.88;;;23.93
63689;BMP280;54895;40.928;14.480;2022-11-14T12:20:36;101652.94;;;23.98
63689;BMP280;54895;40.928;14.480;2022-11-14T12:28:00;101655.97;;;23.81
63689;BMP280;54895;40.928;14.480;2022-11-14T12:30:20;101643.53;;;24.11
63689;BMP280;54895;40.928;14.480;2022-11-14T12:33:14;101647.50;;;23.98
63689;BMP280;54895;40.928;14.480;2022-11-14T12:36:04;101643.88;;;23.73
63689;BMP280;54895;40.928;14.480;2022-11-14T12:38:52;101648.81;;;23.65
63689;BMP280;54895;40.928;14.480;2022-11-14T12:41:39;101635.94;;;23.98
63689;BMP280;54895;40.928;14.480;2022-11-14T12:47:14;101642.75;;;23.87
63689;BMP280;54895;40.928;14.480;2022-11-14T12:50:00;101662.41;;;24.53
63689;BMP280;54895;40.928;14.480;2022-11-14T12:52:50;101664.16;;;25.17
63689;BMP280;54895;40.928;14.480;2022-11-14T13:10:37;101678.66;;;25.81
63689;BMP280;54895;40.928;14.480;2022-11-14T13:13:23;101673.22;;;25.69
63689;BMP280;54895;40.928;14.480;2022-11-14T13:16:30;101657.25;;;25.89
63689;BMP280;54895;40.928;14.480;2022-11-14T13:19:44;101647.28;;;25.93
63689;BMP280;54895;40.928;14.480;2022-11-14T13:22:48;101645.41;;;25.59
63689;BMP280;54895;40.928;14.480;2022-11-14T13:25:32;101654.56;;;25.52
63689;BMP280;54895;40.928;14.480;2022-11-14T13:34:36;101657.31;;;25.77
63689;BMP280;54895;40.928;14.480;2022-11-14T13:47:17;101650.03;;;25.68
63689;BMP280;54895;40.928;14.480;2022-11-14T13:52:51;101656.34;;;25.84
63689;BMP280;54895;40.928;14.480;2022-11-14T14:11:31;101663.19;;;25.24
63689;BMP280;54895;40.928;14.480;2022-11-14T14:14:38;101662.06;;;24.81
63689;BMP280;54895;40.928;14.480;2022-11-14T14:32:12;101655.91;;;23.70
63689;BMP280;54895;40.928;14.480;2022-11-14T14:34:56;101661.00;;;23.96
63689;BMP280;54895;40.928;14.480;2022-11-14T14:37:49;101664.13;;;24.14
63689;BMP280;54895;40.928;14.480;2022-11-14T14:40:36;101668.56;;;23.98
63689;BMP280;54895;40.928;14.480;2022-11-14T14:43:31;101666.69;;;24.67
63689;BMP280;54895;40.928;14.480;2022-11-14T14:46:30;101653.28;;;24.94
63689;BMP280;54895;40.928;14.480;2022-11-14T14:49:22;101672.47;;;25.08
63689;BMP280;54895;40.928;14.480;2022-11-14T14:52:38;101668.41;;;25.20
63689;BMP280;54895;40.928;14.480;2022-11-14T14:55:29;101672.91;;;25.27
63689;BMP280;54895;40.928;14.480;2022-11-14T14:58:27;101680.22;;;25.47
63689;BMP280;54895;40.928;14.480;2022-11-14T15:01:15;101667.28;;;24.89
63689;BMP280;54895;40.928;14.480;2022-11-14T15:04:06;101674.19;;;24.23
63689;BMP280;54895;40.928;14.480;2022-11-14T15:06:51;101675.31;;;23.76
63689;BMP280;54895;40.928;14.480;2022-11-14T15:09:37;101671.44;;;23.37
63689;BMP280;54895;40.928;14.480;2022-11-14T15:12:24;101672.84;;;23.17
63689;BMP280;54895;40.928;14.480;2022-11-14T15:15:14;101681.19;;;23.61
63689;BMP280;54895;40.928;14.480;2022-11-14T15:18:01;101679.13;;;24.15
63689;BMP280;54895;40.928;14.480;2022-11-14T15:21:08;101679.06;;;24.36
63689;BMP280;54895;40.928;14.480;2022-11-14T15:26:49;101673.72;;;23.94
63689;BMP280;54895;40.928;14.480;2022-11-14T15:29:34;101656.97;;;23.65
63689;BMP280;54895;40.928;14.480;2022-11-14T15:32:25;101660.34;;;23.33
63689;BMP280;54895;40.928;14.480;2022-11-14T15:43:55;101671.34;;;22.74
63689;BMP280;54895;40.928;14.480;2022-11-14T15:46:46;101676.88;;;22.86
63689;BMP280;54895;40.928;14.480;2022-11-14T15:49:32;101670.97;;;22.59
63689;BMP280;54895;40.928;14.480;2022-11-14T15:52:20;101678.50;;;22.60
63689;BMP280;54895;40.928;14.480;2022-11-14T15:57:57;101674.09;;;22.46
63689;BMP280;54895;40.928;14.480;2022-11-14T16:00:52;101682.22;;;22.55
63689;BMP280;54895;40.928;14.480;2022-11-14T16:03:38;101677.53;;;22.56
63689;BMP280;54895;40.928;14.480;2022-11-14T16:06:23;101640.47;;;22.30
63689;BMP280;54895;40.928;14.480;2022-11-14T16:09:18;101687.38;;;22.51
63689;BMP280;54895;40.928;14.480;2022-11-14T16:12:05;101689.97;;;22.30
63689;BMP280;54895;40.928;14.480;2022-11-14T16:14:50;101681.97;;;22.32
63689;BMP280;54895;40.928;14.480;2022-11-14T16:17:39;101688.69;;;22.22
63689;BMP280;54895;40.928;14.480;2022-11-14T16:20:27;101686.28;;;21.98
63689;BMP280;54895;40.928;14.480;2022-11-14T16:23:12;101683.16;;;21.92
63689;BMP280;54895;40.928;14.480;2022-11-14T16:25:59;101684.72;;;22.04
63689;BMP280;54895;40.928;14.480;2022-11-14T16:28:44;101681.72;;;22.28
63689;BMP280;54895;40.928;14.480;2022-11-14T16:31:29;101692.75;;;22.70
63689;BMP280;54895;40.928;14.480;2022-11-14T16:34:19;101685.16;;;23.18
63689;BMP280;54895;40.928;14.480;2022-11-14T16:37:04;101688.16;;;23.43
63689;BMP280;54895;40.928;14.480;2022-11-14T16:39:50;101697.53;;;23.93
63689;BMP280;54895;40.928;14.480;2022-11-14T16:42:35;101703.72;;;24.49
63689;BMP280;54895;40.928;14.480;2022-11-14T16:45:20;101702.09;;;25.02
63689;BMP280;54895;40.928;14.480;2022-11-14T16:48:05;101693.16;;;25.24
63689;BMP280;54895;40.928;14.480;2022-11-14T16:50:50;101689.72;;;25.23
63689;BMP280;54895;40.928;14.480;2022-11-14T16:53:35;101708.72;;;25.58
63689;BMP280;54895;40.928;14.480;2022-11-14T16:56:19;101720.69;;;25.64
63689;BMP280;54895;40.928;14.480;2022-11-14T16:59:05;101719.16;;;25.86
63689;BMP280;54895;40.928;14.480;2022-11-14T17:01:49;101717.00;;;25.96
63689;BMP280;54895;40.928;14.480;2022-11-14T17:04:34;101718.19;;;25.93
63689;BMP280;54895;40.928;14.480;2022-11-14T17:07:19;101713.06;;;25.74
63689;BMP280;54895;40.928;14.480;2022-11-14T17:10:05;101720.25;;;26.31
63689;BMP280;54895;40.928;14.480;2022-11-14T17:12:50;101725.47;;;26.79
63689;BMP280;54895;40.928;14.480;2022-11-14T17:15:35;101718.16;;;26.97
63689;BMP280;54895;40.928;14.480;2022-11-14T17:18:20;101731.13;;;27.10
63689;BMP280;54895;40.928;14.480;2022-11-14T17:21:07;101722.38;;;27.27
63689;BMP280;54895;40.928;14.480;2022-11-14T17:23:56;101715.53;;;27.54
63689;BMP280;54895;40.928;14.480;2022-11-14T17:26:41;101722.88;;;27.37
63689;BMP280;54895;40.928;14.480;2022-11-14T17:29:26;101730.88;;;27.33
63689;BMP280;54895;40.928;14.480;2022-11-14T17:32:11;101723.63;;;26.83
63689;BMP280;54895;40.928;14.480;2022-11-14T17:34:55;101718.06;;;26.81
63689;BMP280;54895;40.928;14.480;2022-11-14T17:37:41;101721.31;;;26.78
63689;BMP280;54895;40.928;14.480;2022-11-14T17:40:26;101722.50;;;26.61
63689;BMP280;54895;40.928;14.480;2022-11-14T17:43:14;101725.63;;;26.56
63689;BMP280;54895;40.928;14.480;2022-11-14T17:46:00;101723.16;;;25.97
63689;BMP280;54895;40.928;14.480;2022-11-14T17:48:45;101723.81;;;25.47
63689;BMP280;54895;40.928;14.480;2022-11-14T17:51:30;101715.34;;;25.91
63689;BMP280;54895;40.928;14.480;2022-11-14T17:54:14;101728.88;;;25.89
63689;BMP280;54895;40.928;14.480;2022-11-14T17:56:59;101722.94;;;25.56
63689;BMP280;54895;40.928;14.480;2022-11-14T17:59:44;101732.84;;;25.38
63689;BMP280;54895;40.928;14.480;2022-11-14T18:02:30;101736.22;;;25.50
63689;BMP280;54895;40.928;14.480;2022-11-14T18:05:15;101737.13;;;24.84
63689;BMP280;54895;40.928;14.480;2022-11-14T18:08:00;101732.53;;;23.78
63689;BMP280;54895;40.928;14.480;2022-11-14T18:10:44;101741.34;;;23.88
63689;BMP280;54895;40.928;14.480;2022-11-14T18:13:29;101735.91;;;24.64
63689;BMP280;54895;40.928;14.480;2022-11-14T18:16:17;101741.84;;;24.84
63689;BMP280;54895;40.928;14.480;2022-11-14T18:19:02;101746.34;;;24.91
63689;BMP280;54895;40.928;14.480;2022-11-14T18:21:47;101740.28;;;24.14